createdAt,value
2022-12-11T00:00:09.609Z,100575.56
2022-12-11T00:01:13.372Z,100576.63
2022-12-11T00:02:16.771Z,100572.41
2022-12-11T00:03:19.916Z,100575.19
2022-12-11T00:04:23.664Z,100570.31
2022-12-11T00:05:25.905Z,100568.41
2022-12-11T00:06:30.648Z,100561.97
2022-12-11T00:07:32.895Z,100561.22
2022-12-11T00:08:36.637Z,100564.69
2022-12-11T00:09:39.094Z,100559.34
2022-12-11T00:10:48.908Z,100559.56
2022-12-11T00:11:51.211Z,100562.34
2022-12-11T00:12:54.516Z,100561.69
2022-12-11T00:13:56.691Z,100558.09
2022-12-11T00:15:00.028Z,100557.88
2022-12-11T00:16:02.215Z,100554.81
2022-12-11T00:17:05.721Z,100552.16
2022-12-11T00:18:12.457Z,100553.41
2022-12-11T00:19:15.779Z,100556.03
2022-12-11T00:20:18.236Z,100553.41
2022-12-11T00:21:21.458Z,100560.78
2022-12-11T00:22:25.078Z,100552.47
2022-12-11T00:23:28.502Z,100562.28
2022-12-11T00:24:30.956Z,100563.28
2022-12-11T00:25:34.185Z,100570.94
2022-12-11T00:26:39.335Z,100566.69
2022-12-11T00:27:43.064Z,100567.50
2022-12-11T00:28:45.678Z,100570.63
2022-12-11T00:29:49.075Z,100564.94
2022-12-11T00:30:52.225Z,100566.34
2022-12-11T00:31:55.672Z,100566.06
2022-12-11T00:32:57.953Z,100567.38
2022-12-11T00:34:02.676Z,100569.69
2022-12-11T00:35:05.547Z,100569.75
2022-12-11T00:36:13.734Z,100573.00
2022-12-11T00:37:16.160Z,100569.34
2022-12-11T00:38:22.997Z,100581.41
2022-12-11T00:39:25.392Z,100571.09
2022-12-11T00:40:28.768Z,100572.63
2022-12-11T00:41:31.534Z,100568.31
2022-12-11T00:42:34.771Z,100572.13
2022-12-11T00:43:37.248Z,100572.47
2022-12-11T00:44:40.840Z,100570.25
2022-12-11T00:45:45.272Z,100574.38
2022-12-11T00:46:48.705Z,100569.59
2022-12-11T00:47:50.897Z,100568.50
2022-12-11T00:48:54.253Z,100565.56
2022-12-11T00:49:56.536Z,100561.56
2022-12-11T00:50:59.959Z,100560.75
2022-12-11T00:52:02.208Z,100564.63
2022-12-11T00:53:06.365Z,100564.41
2022-12-11T00:54:11.538Z,100557.69
2022-12-11T00:55:13.844Z,100561.34
2022-12-11T00:56:19.900Z,100561.84
2022-12-11T00:57:22.059Z,100557.78
2022-12-11T00:58:25.551Z,100561.00
2022-12-11T00:59:28.647Z,100561.38
2022-12-11T01:00:31.948Z,100561.84
2022-12-11T01:01:34.168Z,100551.75
2022-12-11T01:02:37.515Z,100553.56
2022-12-11T01:03:40.217Z,100559.91
2022-12-11T01:04:43.472Z,100555.38
2022-12-11T01:05:53.331Z,100561.94
2022-12-11T01:06:56.619Z,100559.34
2022-12-11T01:07:59.052Z,100550.38
2022-12-11T01:09:19.882Z,100554.66
2022-12-11T01:10:27.428Z,100550.84
2022-12-11T01:11:29.719Z,100549.94
2022-12-11T01:12:32.944Z,100551.75
2022-12-11T01:13:35.760Z,100553.78
2022-12-11T01:14:39.133Z,100551.16
2022-12-11T01:15:44.159Z,100544.16
2022-12-11T01:16:47.528Z,100549.13
2022-12-11T01:17:50.050Z,100543.28
2022-12-11T01:18:53.326Z,100541.63
2022-12-11T01:19:55.529Z,100552.41
2022-12-11T01:20:59.345Z,100549.94
2022-12-11T01:22:01.565Z,100552.66
2022-12-11T01:23:04.776Z,100551.94
2022-12-11T01:24:07.342Z,100545.50
2022-12-11T01:25:11.694Z,100552.84
2022-12-11T01:26:16.354Z,100548.38
2022-12-11T01:27:19.956Z,100550.16
2022-12-11T01:28:22.202Z,100547.69
2022-12-11T01:29:25.519Z,100553.41
2022-12-11T01:30:27.762Z,100545.25
2022-12-11T01:31:31.201Z,100549.00
2022-12-11T01:32:34.263Z,100550.38
2022-12-11T01:33:37.766Z,100538.84
2022-12-11T01:34:40.184Z,100545.38
2022-12-11T01:35:43.438Z,100547.78
2022-12-11T01:36:45.668Z,100551.97
2022-12-11T01:37:49.438Z,100547.69
2022-12-11T01:38:54.533Z,100553.56
2022-12-11T01:39:56.761Z,100560.22
2022-12-11T01:41:00.075Z,100558.47
2022-12-11T01:42:04.852Z,100565.72
2022-12-11T01:43:10.490Z,100560.50
2022-12-11T01:44:46.601Z,100564.19
2022-12-11T01:45:49.089Z,100565.53
2022-12-11T01:46:52.360Z,100558.75
2022-12-11T01:48:00.188Z,100570.38
2022-12-11T01:49:07.070Z,100569.78
2022-12-11T01:50:09.407Z,100567.63
2022-12-11T01:51:12.898Z,100560.91
2022-12-11T01:52:19.830Z,100560.84
2022-12-11T01:53:28.502Z,100564.88
2022-12-11T01:54:31.102Z,100565.16
2022-12-11T01:55:35.160Z,100568.56
2022-12-11T01:56:41.202Z,100573.81
2022-12-11T01:57:48.492Z,100576.97
2022-12-11T01:58:56.932Z,100574.09
2022-12-11T01:59:59.377Z,100573.66
2022-12-11T02:01:03.947Z,100571.81
2022-12-11T02:02:10.375Z,100584.44
2022-12-11T02:03:13.972Z,100583.03
2022-12-11T02:04:16.843Z,100580.16
2022-12-11T02:05:20.249Z,100591.03
2022-12-11T02:06:35.637Z,100583.03
2022-12-11T02:07:44.970Z,100579.50
2022-12-11T02:08:47.399Z,100589.69
2022-12-11T02:09:51.475Z,100584.81
2022-12-11T02:11:06.120Z,100586.41
2022-12-11T02:12:16.591Z,100588.22
2022-12-11T02:13:27.309Z,100584.09
2022-12-11T02:14:36.629Z,100581.13
2022-12-11T02:15:46.315Z,100585.41
2022-12-11T02:16:57.040Z,100580.06
2022-12-11T02:18:09.971Z,100580.00
2022-12-11T02:19:30.729Z,100587.88
2022-12-11T02:20:36.912Z,100586.91
2022-12-11T02:21:43.643Z,100590.50
2022-12-11T02:23:06.830Z,100588.69
2022-12-11T02:24:28.336Z,100582.97
2022-12-11T02:25:37.141Z,100577.59
2022-12-11T02:27:04.489Z,100569.09
2022-12-11T02:28:18.516Z,100572.28
2022-12-11T02:29:27.251Z,100565.16
2022-12-11T02:30:30.028Z,100566.06
2022-12-11T02:31:37.606Z,100560.34
2022-12-11T02:32:46.139Z,100566.03
2022-12-11T02:33:55.230Z,100557.75
2022-12-11T02:35:05.870Z,100570.97
2022-12-11T02:36:11.380Z,100555.09
2022-12-11T02:37:20.747Z,100555.03
2022-12-11T02:38:30.034Z,100550.59
2022-12-11T02:39:36.060Z,100557.31
2022-12-11T02:40:42.644Z,100555.41
2022-12-11T02:41:49.168Z,100549.03
2022-12-11T02:42:55.559Z,100553.06
2022-12-11T02:44:00.694Z,100548.66
2022-12-11T02:45:06.401Z,100544.88
2022-12-11T02:46:09.240Z,100545.03
2022-12-11T02:47:15.022Z,100541.94
2022-12-11T02:48:18.424Z,100551.72
2022-12-11T02:49:22.633Z,100548.09
2022-12-11T02:50:26.276Z,100550.00
2022-12-11T02:51:35.609Z,100547.47
2022-12-11T02:52:39.041Z,100550.72
2022-12-11T02:53:45.045Z,100550.50
2022-12-11T02:54:48.987Z,100550.91
2022-12-11T02:56:00.730Z,100548.53
2022-12-11T02:57:08.740Z,100544.44
2022-12-11T02:58:18.243Z,100549.88
2022-12-11T02:59:27.310Z,100551.50
2022-12-11T03:00:31.923Z,100545.38
2022-12-11T03:01:34.506Z,100544.72
2022-12-11T03:02:38.916Z,100539.50
2022-12-11T03:03:41.325Z,100536.19
2022-12-11T03:04:45.986Z,100534.84
2022-12-11T03:05:48.235Z,100530.66
2022-12-11T03:06:54.898Z,100530.44
2022-12-11T03:07:57.419Z,100536.19
2022-12-11T03:09:00.810Z,100537.34
2022-12-11T03:10:04.302Z,100534.91
2022-12-11T03:11:11.938Z,100537.34
2022-12-11T03:12:17.370Z,100536.88
2022-12-11T03:13:22.951Z,100537.56
2022-12-11T03:14:27.980Z,100539.53
2022-12-11T03:15:42.023Z,100540.53
2022-12-11T03:16:54.575Z,100543.53
2022-12-11T03:18:05.419Z,100539.06
2022-12-11T03:19:16.296Z,100536.47
2022-12-11T03:20:27.155Z,100524.22
2022-12-11T03:21:35.144Z,100526.38
2022-12-11T03:22:42.257Z,100518.34
2022-12-11T03:23:51.323Z,100524.22
2022-12-11T03:25:02.119Z,100508.53
2022-12-11T03:26:06.674Z,100509.88
2022-12-11T03:27:15.332Z,100503.00
2022-12-11T03:28:21.815Z,100511.44
2022-12-11T03:29:27.472Z,100509.81
2022-12-11T03:30:34.679Z,100513.69
2022-12-11T03:31:42.678Z,100504.72
2022-12-11T03:32:51.903Z,100514.34
2022-12-11T03:33:58.230Z,100517.06
2022-12-11T03:35:06.581Z,100511.31
2022-12-11T03:36:12.571Z,100509.63
2022-12-11T03:37:17.669Z,100504.63
2022-12-11T03:38:23.619Z,100503.88
2022-12-11T03:39:30.859Z,100500.34
2022-12-11T03:40:36.332Z,100497.59
2022-12-11T03:41:41.711Z,100507.66
2022-12-11T03:42:45.890Z,100506.09
2022-12-11T03:43:51.515Z,100503.50
2022-12-11T03:44:57.216Z,100498.84
2022-12-11T03:46:02.921Z,100495.53
2022-12-11T03:47:08.364Z,100500.31
2022-12-11T03:48:13.158Z,100498.84
2022-12-11T03:49:18.061Z,100501.66
2022-12-11T03:50:23.997Z,100511.41
2022-12-11T03:51:27.265Z,100506.31
2022-12-11T03:52:30.783Z,100510.03
2022-12-11T03:53:34.720Z,100508.34
2022-12-11T03:54:39.392Z,100507.56
2022-12-11T03:55:42.591Z,100508.69
2022-12-11T03:56:47.955Z,100506.22
2022-12-11T03:57:50.212Z,100509.38
2022-12-11T03:58:53.603Z,100500.31
2022-12-11T03:59:56.042Z,100507.91
2022-12-11T04:00:59.403Z,100506.28
2022-12-11T04:02:10.778Z,100506.31
2022-12-11T04:03:14.608Z,100506.72
2022-12-11T04:04:17.356Z,100515.75
2022-12-11T04:05:20.641Z,100511.53
2022-12-11T04:06:22.875Z,100522.31
2022-12-11T04:07:26.109Z,100523.25
2022-12-11T04:08:28.412Z,100521.94
2022-12-11T04:09:31.705Z,100526.72
2022-12-11T04:10:34.401Z,100529.97
2022-12-11T04:11:38.259Z,100527.28
2022-12-11T04:12:41.589Z,100533.06
2022-12-11T04:13:43.973Z,100536.56
2022-12-11T04:15:04.467Z,100539.06
2022-12-11T04:16:08.711Z,100535.19
2022-12-11T04:17:12.572Z,100532.16
2022-12-11T04:18:33.308Z,100535.31
2022-12-11T04:19:54.731Z,100539.19
2022-12-11T04:21:32.852Z,100527.25
2022-12-11T04:22:56.043Z,100532.16
2022-12-11T04:24:18.221Z,100529.97
2022-12-11T04:25:20.702Z,100526.47
2022-12-11T04:26:24.065Z,100532.22
2022-12-11T04:27:45.584Z,100530.16
2022-12-11T04:28:49.835Z,100537.44
2022-12-11T04:29:52.028Z,100537.44
2022-12-11T04:30:55.546Z,100535.84
2022-12-11T04:31:58.151Z,100533.78
2022-12-11T04:33:03.196Z,100536.66
2022-12-11T04:34:05.563Z,100544.47
2022-12-11T04:35:10.840Z,100544.56
2022-12-11T04:36:14.275Z,100541.63
2022-12-11T04:37:17.555Z,100530.41
2022-12-11T04:38:19.762Z,100530.63
2022-12-11T04:39:22.952Z,100530.66
2022-12-11T04:40:25.375Z,100530.53
2022-12-11T04:41:28.722Z,100530.28
2022-12-11T04:42:31.183Z,100530.75
2022-12-11T04:43:34.449Z,100531.44
2022-12-11T04:44:36.698Z,100528.78
2022-12-11T04:45:40.001Z,100529.84
2022-12-11T04:46:42.255Z,100537.63
2022-12-11T04:47:45.618Z,100532.03
2022-12-11T04:48:55.376Z,100532.22
2022-12-11T04:50:00.207Z,100534.66
2022-12-11T04:51:02.415Z,100528.06
2022-12-11T04:52:05.992Z,100530.31
2022-12-11T04:53:08.104Z,100529.69
2022-12-11T04:54:11.535Z,100542.88
2022-12-11T04:55:14.181Z,100530.41
2022-12-11T04:56:18.229Z,100534.66
2022-12-11T04:57:21.707Z,100542.34
2022-12-11T04:58:26.478Z,100532.72
2022-12-11T04:59:28.816Z,100535.69
2022-12-11T05:00:32.260Z,100534.28
2022-12-11T05:01:34.752Z,100535.28
2022-12-11T05:02:38.964Z,100533.09
2022-12-11T05:03:41.776Z,100527.44
2022-12-11T05:04:46.881Z,100528.56
2022-12-11T05:05:50.935Z,100526.06
2022-12-11T05:06:54.348Z,100529.16
2022-12-11T05:07:56.583Z,100520.97
2022-12-11T05:08:59.898Z,100521.16
2022-12-11T05:10:02.636Z,100522.25
2022-12-11T05:11:07.899Z,100522.41
2022-12-11T05:12:11.235Z,100529.66
2022-12-11T05:13:13.759Z,100524.59
2022-12-11T05:14:16.955Z,100521.88
2022-12-11T05:15:19.224Z,100520.38
2022-12-11T05:16:22.601Z,100528.31
2022-12-11T05:17:24.897Z,100525.53
2022-12-11T05:18:28.164Z,100527.19
2022-12-11T05:19:30.448Z,100535.78
2022-12-11T05:20:35.230Z,100530.69
2022-12-11T05:21:37.588Z,100532.63
2022-12-11T05:22:40.999Z,100530.28
2022-12-11T05:23:43.423Z,100531.81
2022-12-11T05:24:46.917Z,100535.63
2022-12-11T05:25:52.638Z,100531.34
2022-12-11T05:26:56.320Z,100521.75
2022-12-11T05:27:58.795Z,100530.84
2022-12-11T05:29:02.199Z,100533.56
2022-12-11T05:30:05.564Z,100534.63
2022-12-11T05:31:12.878Z,100533.00
2022-12-11T05:32:16.327Z,100531.72
2022-12-11T05:33:18.839Z,100524.00
2022-12-11T05:34:22.060Z,100525.31
2022-12-11T05:35:24.309Z,100521.69
2022-12-11T05:36:31.133Z,100519.19
2022-12-11T05:37:34.377Z,100517.19
2022-12-11T05:38:37.872Z,100521.00
2022-12-11T05:39:40.159Z,100520.91
2022-12-11T05:40:43.570Z,100522.28
2022-12-11T05:41:47.220Z,100526.03
2022-12-11T05:42:49.478Z,100524.78
2022-12-11T05:43:53.279Z,100525.03
2022-12-11T05:44:55.457Z,100528.88
2022-12-11T05:46:07.154Z,100519.91
2022-12-11T05:47:11.166Z,100521.78
2022-12-11T05:48:13.499Z,100521.88
2022-12-11T05:49:19.861Z,100524.34
2022-12-11T05:50:23.762Z,100527.84
2022-12-11T05:51:28.540Z,100522.28
2022-12-11T05:52:33.469Z,100522.66
2022-12-11T05:53:36.614Z,100519.00
2022-12-11T05:54:40.035Z,100515.25
2022-12-11T05:55:42.738Z,100509.47
2022-12-11T05:56:46.122Z,100513.56
2022-12-11T05:57:48.563Z,100515.16
2022-12-11T05:58:52.451Z,100512.31
2022-12-11T05:59:55.001Z,100510.50
2022-12-11T06:00:58.603Z,100509.03
2022-12-11T06:02:02.025Z,100505.19
2022-12-11T06:03:04.630Z,100512.44
2022-12-11T06:04:09.374Z,100512.44
2022-12-11T06:05:11.907Z,100511.31
2022-12-11T06:06:15.797Z,100512.44
2022-12-11T06:07:20.790Z,100515.38
2022-12-11T06:08:23.529Z,100505.75
2022-12-11T06:09:27.030Z,100498.75
2022-12-11T06:10:29.435Z,100492.41
2022-12-11T06:11:36.326Z,100497.50
2022-12-11T06:12:38.538Z,100493.63
2022-12-11T06:13:42.104Z,100498.25
2022-12-11T06:14:44.381Z,100495.13
2022-12-11T06:15:47.899Z,100495.22
2022-12-11T06:16:50.521Z,100498.59
2022-12-11T06:17:53.910Z,100500.78
2022-12-11T06:18:58.400Z,100502.13
2022-12-11T06:20:02.808Z,100494.44
2022-12-11T06:21:13.351Z,100500.22
2022-12-11T06:22:16.652Z,100506.56
2022-12-11T06:23:20.516Z,100507.47
2022-12-11T06:24:23.883Z,100505.19
2022-12-11T06:25:26.314Z,100511.97
2022-12-11T06:26:30.317Z,100505.88
2022-12-11T06:27:32.696Z,100509.38
2022-12-11T06:28:36.044Z,100509.66
2022-12-11T06:29:38.490Z,100508.25
2022-12-11T06:30:42.081Z,100512.75
2022-12-11T06:31:44.739Z,100505.28
2022-12-11T06:32:48.131Z,100500.09
2022-12-11T06:33:50.366Z,100502.56
2022-12-11T06:34:53.871Z,100495.34
2022-12-11T06:35:56.882Z,100495.78
2022-12-11T06:37:00.167Z,100499.66
2022-12-11T06:38:02.544Z,100497.81
2022-12-11T06:39:07.617Z,100499.66
2022-12-11T06:40:11.866Z,100498.97
2022-12-11T06:41:16.011Z,100493.03
2022-12-11T06:42:18.255Z,100498.81
2022-12-11T06:43:21.535Z,100495.19
2022-12-11T06:44:25.255Z,100494.72
2022-12-11T06:45:28.645Z,100499.66
2022-12-11T06:46:31.188Z,100497.56
2022-12-11T06:47:34.576Z,100494.75
2022-12-11T06:48:37.303Z,100494.66
2022-12-11T06:49:40.694Z,100496.78
2022-12-11T06:50:42.860Z,100495.16
2022-12-11T06:51:46.091Z,100498.50
2022-12-11T06:52:48.693Z,100497.81
2022-12-11T06:53:53.172Z,100496.59
2022-12-11T06:54:57.251Z,100499.28
2022-12-11T06:56:04.663Z,100503.59
2022-12-11T06:57:06.950Z,100504.19
2022-12-11T06:58:11.245Z,100498.16
2022-12-11T06:59:13.560Z,100499.66
2022-12-11T07:00:17.767Z,100498.41
2022-12-11T07:01:22.249Z,100505.41
2022-12-11T07:02:25.598Z,100499.41
2022-12-11T07:03:28.020Z,100498.16
2022-12-11T07:04:31.472Z,100496.44
2022-12-11T07:05:34.515Z,100499.28
2022-12-11T07:06:37.861Z,100493.72
2022-12-11T07:07:40.151Z,100486.72
2022-12-11T07:08:43.751Z,100487.16
2022-12-11T07:09:46.475Z,100489.38
2022-12-11T07:10:51.192Z,100483.44
2022-12-11T07:11:53.741Z,100482.75
2022-12-11T07:12:57.166Z,100484.34
2022-12-11T07:13:59.998Z,100480.56
2022-12-11T07:15:03.369Z,100475.34
2022-12-11T07:16:10.849Z,100484.50
2022-12-11T07:17:14.363Z,100481.31
2022-12-11T07:18:16.787Z,100476.81
2022-12-11T07:19:20.139Z,100479.22
2022-12-11T07:20:22.583Z,100476.88
2022-12-11T07:21:26.061Z,100487.47
2022-12-11T07:22:29.525Z,100479.56
2022-12-11T07:23:32.836Z,100485.44
2022-12-11T07:24:35.168Z,100488.97
2022-12-11T07:25:38.815Z,100498.97
2022-12-11T07:26:42.530Z,100492.50
2022-12-11T07:27:45.861Z,100488.66
2022-12-11T07:28:48.279Z,100483.59
2022-12-11T07:29:52.274Z,100481.75
2022-12-11T07:30:54.895Z,100485.72
2022-12-11T07:31:58.189Z,100490.88
2022-12-11T07:33:00.697Z,100494.13
2022-12-11T07:34:07.398Z,100491.91
2022-12-11T07:35:10.534Z,100490.00
2022-12-11T07:36:15.284Z,100483.66
2022-12-11T07:37:18.046Z,100482.72
2022-12-11T07:38:21.484Z,100486.84
2022-12-11T07:39:23.814Z,100484.13
2022-12-11T07:40:27.473Z,100489.66
2022-12-11T07:41:32.143Z,100488.13
2022-12-11T07:42:35.798Z,100494.56
2022-12-11T07:43:39.358Z,100491.16
2022-12-11T07:44:42.764Z,100486.34
2022-12-11T07:45:44.987Z,100489.28
2022-12-11T07:46:48.148Z,100487.63
2022-12-11T07:47:50.505Z,100484.13
2022-12-11T07:48:54.130Z,100488.09
2022-12-11T07:49:58.300Z,100490.25
2022-12-11T07:51:10.258Z,100478.72
2022-12-11T07:52:13.739Z,100488.41
2022-12-11T07:53:15.963Z,100481.84
2022-12-11T07:54:19.308Z,100480.09
2022-12-11T07:55:21.587Z,100482.78
2022-12-11T07:56:25.063Z,100483.44
2022-12-11T07:57:29.412Z,100477.16
2022-12-11T07:58:33.110Z,100494.59
2022-12-11T07:59:36.478Z,100496.81
2022-12-11T08:00:38.797Z,100497.38
2022-12-11T08:01:42.735Z,100503.53
2022-12-11T08:02:45.229Z,100499.19
2022-12-11T08:03:49.613Z,100500.69
2022-12-11T08:04:52.821Z,100501.53
2022-12-11T08:05:54.912Z,100503.22
2022-12-11T08:06:59.371Z,100496.97
2022-12-11T08:08:02.724Z,100491.19
2022-12-11T08:09:08.391Z,100488.84
2022-12-11T08:10:11.029Z,100489.38
2022-12-11T08:11:16.499Z,100494.91
2022-12-11T08:12:19.839Z,100501.00
2022-12-11T08:13:22.048Z,100496.66
2022-12-11T08:14:26.851Z,100501.38
2022-12-11T08:15:29.012Z,100498.22
2022-12-11T08:16:32.265Z,100497.84
2022-12-11T08:17:40.044Z,100501.00
2022-12-11T08:18:44.246Z,100495.56
2022-12-11T08:19:47.733Z,100498.47
2022-12-11T08:20:50.068Z,100502.53
2022-12-11T08:21:53.594Z,100500.06
2022-12-11T08:22:59.213Z,100505.22
2022-12-11T08:24:02.911Z,100502.44
2022-12-11T08:25:07.199Z,100508.19
2022-12-11T08:26:11.154Z,100508.69
2022-12-11T08:27:14.451Z,100512.63
2022-12-11T08:28:16.962Z,100509.41
2022-12-11T08:29:20.410Z,100502.91
2022-12-11T08:30:25.135Z,100500.34
2022-12-11T08:31:27.982Z,100500.19
2022-12-11T08:32:31.363Z,100494.59
2022-12-11T08:33:33.963Z,100494.41
2022-12-11T08:34:37.238Z,100500.25
2022-12-11T08:35:39.970Z,100500.84
2022-12-11T08:36:44.434Z,100497.91
2022-12-11T08:37:46.887Z,100494.72
2022-12-11T08:38:50.835Z,100498.06
2022-12-11T08:39:53.143Z,100491.09
2022-12-11T08:40:56.533Z,100491.81
2022-12-11T08:41:59.735Z,100489.22
2022-12-11T08:43:01.940Z,100490.47
2022-12-11T08:44:06.175Z,100484.19
2022-12-11T08:45:11.426Z,100489.44
2022-12-11T08:46:16.244Z,100492.19
2022-12-11T08:47:20.075Z,100494.69
2022-12-11T08:48:22.271Z,100495.00
2022-12-11T08:49:27.607Z,100510.31
2022-12-11T08:50:34.600Z,100505.00
2022-12-11T08:51:37.943Z,100505.31
2022-12-11T08:52:40.501Z,100507.97
2022-12-11T08:53:44.725Z,100512.97
2022-12-11T08:54:48.467Z,100510.72
2022-12-11T08:55:51.863Z,100509.09
2022-12-11T08:56:58.115Z,100509.03
2022-12-11T08:58:00.885Z,100505.94
2022-12-11T08:59:06.358Z,100507.78
2022-12-11T09:00:13.554Z,100507.34
2022-12-11T09:01:22.128Z,100509.28
2022-12-11T09:02:25.488Z,100511.03
2022-12-11T09:03:27.883Z,100501.66
2022-12-11T09:04:31.189Z,100493.41
2022-12-11T09:05:33.805Z,100499.63
2022-12-11T09:06:37.103Z,100493.66
2022-12-11T09:07:40.889Z,100493.13
2022-12-11T09:08:51.659Z,100499.94
2022-12-11T09:09:56.144Z,100496.97
2022-12-11T09:11:04.595Z,100495.06
2022-12-11T09:12:08.548Z,100501.91
2022-12-11T09:13:10.889Z,100504.16
2022-12-11T09:14:14.255Z,100495.00
2022-12-11T09:15:16.809Z,100501.13
2022-12-11T09:16:23.571Z,100503.69
2022-12-11T09:17:27.001Z,100500.06
2022-12-11T09:18:30.271Z,100509.38
2022-12-11T09:19:33.892Z,100517.44
2022-12-11T09:20:36.146Z,100509.38
2022-12-11T09:21:39.553Z,100517.72
2022-12-11T09:22:43.218Z,100524.19
2022-12-11T09:23:46.870Z,100527.50
2022-12-11T09:24:50.201Z,100537.63
2022-12-11T09:25:52.507Z,100544.81
2022-12-11T09:26:55.787Z,100537.84
2022-12-11T09:27:58.153Z,100546.34
2022-12-11T09:29:04.563Z,100542.53
2022-12-11T09:30:08.395Z,100536.47
2022-12-11T09:31:12.707Z,100525.50
2022-12-11T09:32:16.444Z,100528.72
2022-12-11T09:33:20.175Z,100523.78
2022-12-11T09:34:29.107Z,100536.94
2022-12-11T09:35:31.917Z,100545.84
2022-12-11T09:36:35.579Z,100553.56
2022-12-11T09:37:38.899Z,100551.47
2022-12-11T09:38:43.460Z,100553.28
2022-12-11T09:39:46.925Z,100541.88
2022-12-11T09:40:49.217Z,100540.53
2022-12-11T09:42:00.861Z,100538.44
2022-12-11T09:43:11.108Z,100541.50
2022-12-11T09:44:21.493Z,100537.59
2022-12-11T09:45:24.951Z,100532.97
2022-12-11T09:46:33.552Z,100532.34
2022-12-11T09:47:42.281Z,100533.81
2022-12-11T09:48:47.067Z,100535.09
2022-12-11T09:49:58.360Z,100533.31
2022-12-11T09:51:06.691Z,100524.06
2022-12-11T09:52:16.974Z,100529.94
2022-12-11T09:53:29.778Z,100539.16
2022-12-11T09:54:37.548Z,100540.69
2022-12-11T09:55:51.251Z,100541.63
2022-12-11T09:57:01.909Z,100532.56
2022-12-11T09:58:13.304Z,100522.34
2022-12-11T09:59:24.088Z,100528.00
2022-12-11T10:00:34.879Z,100524.56
2022-12-11T10:01:47.393Z,100530.41
2022-12-11T10:03:23.559Z,100528.16
2022-12-11T10:04:38.170Z,100530.91
2022-12-11T10:05:50.406Z,100529.13
2022-12-11T10:07:02.923Z,100530.06
2022-12-11T10:08:14.681Z,100526.31
2022-12-11T10:09:26.051Z,100531.88
2022-12-11T10:10:40.084Z,100538.75
2022-12-11T10:12:00.325Z,100526.63
2022-12-11T10:13:11.755Z,100528.31
2022-12-11T10:14:23.887Z,100533.59
2022-12-11T10:15:37.234Z,100535.78
2022-12-11T10:16:45.394Z,100527.03
2022-12-11T10:17:49.535Z,100527.84
2022-12-11T10:18:54.130Z,100525.28
2022-12-11T10:19:59.346Z,100530.53
2022-12-11T10:21:03.177Z,100524.56
2022-12-11T10:22:14.121Z,100515.25
2022-12-11T10:23:20.431Z,100516.59
2022-12-11T10:24:57.894Z,100514.41
2022-12-11T10:25:57.452Z,100510.09
2022-12-11T10:27:14.392Z,100506.47
2022-12-11T10:28:20.296Z,100512.34
2022-12-11T10:29:23.028Z,100514.31
2022-12-11T10:30:33.049Z,100503.19
2022-12-11T10:31:45.476Z,100498.75
2022-12-11T10:32:54.785Z,100503.75
2022-12-11T10:34:01.543Z,100500.19
2022-12-11T10:35:07.958Z,100507.69
2022-12-11T10:36:15.007Z,100509.56
2022-12-11T10:37:18.391Z,100513.94
2022-12-11T10:38:27.519Z,100505.19
2022-12-11T10:39:31.227Z,100511.03
2022-12-11T10:40:36.189Z,100502.69
2022-12-11T10:41:41.900Z,100506.81
2022-12-11T10:42:54.100Z,100498.91
2022-12-11T10:43:57.536Z,100494.13
2022-12-11T10:45:01.218Z,100486.56
2022-12-11T10:46:05.549Z,100482.38
2022-12-11T10:47:13.017Z,100475.56
2022-12-11T10:48:15.276Z,100473.97
2022-12-11T10:49:27.884Z,100473.78
2022-12-11T10:50:31.435Z,100482.31
2022-12-11T10:51:37.553Z,100478.19
2022-12-11T10:52:46.492Z,100466.59
2022-12-11T10:53:54.299Z,100470.34
2022-12-11T10:55:00.756Z,100463.69
2022-12-11T10:56:04.282Z,100462.16
2022-12-11T10:57:08.296Z,100463.19
2022-12-11T10:58:18.338Z,100460.56
2022-12-11T10:59:27.119Z,100461.22
2022-12-11T11:00:33.591Z,100458.38
2022-12-11T11:01:37.316Z,100457.56
2022-12-11T11:02:41.767Z,100458.63
2022-12-11T11:03:55.875Z,100470.38
2022-12-11T11:05:12.368Z,100470.44
2022-12-11T11:06:20.129Z,100476.94
2022-12-11T11:07:25.149Z,100467.31
2022-12-11T11:08:28.593Z,100460.69
2022-12-11T11:09:35.612Z,100463.13
2022-12-11T11:10:38.003Z,100464.00
2022-12-11T11:11:41.463Z,100462.41
2022-12-11T11:12:46.378Z,100462.09
2022-12-11T11:13:49.793Z,100461.28
2022-12-11T11:15:03.248Z,100444.91
2022-12-11T11:16:09.984Z,100458.66
2022-12-11T11:17:16.920Z,100459.03
2022-12-11T11:18:26.184Z,100462.53
2022-12-11T11:19:32.961Z,100467.59
2022-12-11T11:20:36.744Z,100463.44
2022-12-11T11:21:51.992Z,100461.34
2022-12-11T11:22:57.847Z,100470.22
2022-12-11T11:24:01.477Z,100465.78
2022-12-11T11:25:05.240Z,100467.66
2022-12-11T11:26:10.450Z,100456.75
2022-12-11T11:27:15.787Z,100456.66
2022-12-11T11:28:21.687Z,100456.38
2022-12-11T11:29:30.452Z,100464.56
2022-12-11T11:30:36.984Z,100466.94
2022-12-11T11:31:39.678Z,100466.31
2022-12-11T11:32:43.349Z,100469.75
2022-12-11T11:33:52.828Z,100463.72
2022-12-11T11:35:08.488Z,100457.03
2022-12-11T11:36:22.442Z,100461.94
2022-12-11T11:37:31.576Z,100462.69
2022-12-11T11:38:38.669Z,100461.66
2022-12-11T11:39:47.043Z,100456.44
2022-12-11T11:41:00.782Z,100443.22
2022-12-11T11:42:14.918Z,100440.50
2022-12-11T11:43:22.758Z,100433.66
2022-12-11T11:44:30.150Z,100431.16
2022-12-11T11:45:39.883Z,100430.22
2022-12-11T11:46:47.464Z,100430.66
2022-12-11T11:47:59.844Z,100422.69
2022-12-11T11:49:10.282Z,100432.19
2022-12-11T11:50:19.020Z,100427.59
2022-12-11T11:51:28.784Z,100431.81
2022-12-11T11:52:37.847Z,100425.44
2022-12-11T11:53:41.758Z,100426.50
2022-12-11T11:54:52.495Z,100420.50
2022-12-11T11:56:03.417Z,100415.78
2022-12-11T11:57:16.002Z,100415.53
2022-12-11T11:58:24.349Z,100416.84
2022-12-11T11:59:32.774Z,100427.09
2022-12-11T12:00:35.319Z,100415.53
2022-12-11T12:01:38.852Z,100411.03
2022-12-11T12:02:41.783Z,100419.38
2022-12-11T12:03:46.511Z,100415.22
2022-12-11T12:04:51.639Z,100411.31
2022-12-11T12:06:01.105Z,100407.09
2022-12-11T12:07:28.338Z,100408.41
2022-12-11T12:08:43.859Z,100414.22
2022-12-11T12:09:57.547Z,100410.81
2022-12-11T12:11:08.239Z,100408.41
2022-12-11T12:12:25.524Z,100405.28
2022-12-11T12:13:51.257Z,100409.75
2022-12-11T12:15:07.729Z,100401.00
2022-12-11T12:16:50.907Z,100412.53
2022-12-11T12:17:55.995Z,100410.59
2022-12-11T12:19:04.525Z,100410.84
2022-12-11T12:20:20.373Z,100412.53
2022-12-11T12:21:32.356Z,100409.72
2022-12-11T12:22:51.864Z,100411.19
2022-12-11T12:24:06.775Z,100395.16
2022-12-11T12:25:20.807Z,100395.28
2022-12-11T12:26:29.192Z,100379.72
2022-12-11T12:27:54.020Z,100385.34
2022-12-11T12:29:10.380Z,100370.41
2022-12-11T12:30:22.369Z,100378.59